sensor_id;sensor_type;location;lat;lon;timestamp;temperature;humidity
56542;DHT22;42438;53.174;6.730;2023-10-19T00:01:30;8.00;99.90
56542;DHT22;42438;53.174;6.730;2023-10-19T00:04:04;8.00;99.90
56542;DHT22;42438;53.174;6.730;2023-10-19T00:06:37;8.00;99.90
56542;DHT22;42438;53.174;6.730;2023-10-19T00:09:10;7.90;1.00
56542;DHT22;42438;53.174;6.730;2023-10-19T00:11:41;8.00;1.00
56542;DHT22;42438;53.174;6.730;2023-10-19T00:14:13;7.90;52.30
56542;DHT22;42438;53.174;6.730;2023-10-19T00:16:47;7.90;90.30
56542;DHT22;42438;53.174;6.730;2023-10-19T00:19:23;8.00;99.90
56542;DHT22;42438;53.174;6.730;2023-10-19T00:21:58;8.00;99.90
56542;DHT22;42438;53.174;6.730;2023-10-19T00:24:39;7.90;99.90
56542;DHT22;42438;53.174;6.730;2023-10-19T00:27:12;7.90;1.00
56542;DHT22;42438;53.174;6.730;2023-10-19T00:29:47;7.90;1.00
56542;DHT22;42438;53.174;6.730;2023-10-19T00:32:19;7.90;1.00
56542;DHT22;42438;53.174;6.730;2023-10-19T00:34:50;7.90;1.00
56542;DHT22;42438;53.174;6.730;2023-10-19T00:37:22;7.90;1.00
56542;DHT22;42438;53.174;6.730;2023-10-19T00:40:03;7.90;1.00
56542;DHT22;42438;53.174;6.730;2023-10-19T00:42:46;7.90;1.00
56542;DHT22;42438;53.174;6.730;2023-10-19T00:45:23;7.90;99.90
56542;DHT22;42438;53.174;6.730;2023-10-19T00:47:57;7.80;94.50
56542;DHT22;42438;53.174;6.730;2023-10-19T00:50:28;8.00;47.80
56542;DHT22;42438;53.174;6.730;2023-10-19T00:53:02;7.80;50.90
56542;DHT22;42438;53.174;6.730;2023-10-19T00:55:38;7.80;99.90
56542;DHT22;42438;53.174;6.730;2023-10-19T00:58:09;7.80;99.90
56542;DHT22;42438;53.174;6.730;2023-10-19T01:00:40;7.80;99.90
56542;DHT22;42438;53.174;6.730;2023-10-19T01:03:14;7.80;99.90
56542;DHT22;42438;53.174;6.730;2023-10-19T01:05:47;7.80;99.90
56542;DHT22;42438;53.174;6.730;2023-10-19T01:08:19;7.80;99.90
56542;DHT22;42438;53.174;6.730;2023-10-19T01:11:04;7.80;99.90
56542;DHT22;42438;53.174;6.730;2023-10-19T01:13:36;7.80;99.90
56542;DHT22;42438;53.174;6.730;2023-10-19T01:16:12;7.80;99.90
56542;DHT22;42438;53.174;6.730;2023-10-19T01:18:50;7.80;99.90
56542;DHT22;42438;53.174;6.730;2023-10-19T01:21:24;7.80;99.90
56542;DHT22;42438;53.174;6.730;2023-10-19T01:24:08;7.80;99.90
56542;DHT22;42438;53.174;6.730;2023-10-19T01:26:39;7.80;99.90
56542;DHT22;42438;53.174;6.730;2023-10-19T01:29:10;7.80;99.90
56542;DHT22;42438;53.174;6.730;2023-10-19T01:31:45;7.80;99.90
56542;DHT22;42438;53.174;6.730;2023-10-19T01:34:26;7.80;99.90
56542;DHT22;42438;53.174;6.730;2023-10-19T01:36:57;7.70;99.90
56542;DHT22;42438;53.174;6.730;2023-10-19T01:39:33;7.80;99.90
56542;DHT22;42438;53.174;6.730;2023-10-19T01:42:07;7.80;99.90
56542;DHT22;42438;53.174;6.730;2023-10-19T01:44:39;7.70;99.90
56542;DHT22;42438;53.174;6.730;2023-10-19T01:47:10;7.70;99.90
56542;DHT22;42438;53.174;6.730;2023-10-19T01:49:41;7.80;99.90
56542;DHT22;42438;53.174;6.730;2023-10-19T01:52:15;7.70;99.90
56542;DHT22;42438;53.174;6.730;2023-10-19T01:54:46;7.70;99.90
56542;DHT22;42438;53.174;6.730;2023-10-19T01:57:17;7.70;99.90
56542;DHT22;42438;53.174;6.730;2023-10-19T01:59:47;7.70;99.90
56542;DHT22;42438;53.174;6.730;2023-10-19T02:02:18;7.70;1.00
56542;DHT22;42438;53.174;6.730;2023-10-19T02:04:52;7.80;99.90
56542;DHT22;42438;53.174;6.730;2023-10-19T02:07:23;7.80;1.00
56542;DHT22;42438;53.174;6.730;2023-10-19T02:09:54;7.80;1.00
56542;DHT22;42438;53.174;6.730;2023-10-19T02:12:25;7.80;1.00
56542;DHT22;42438;53.174;6.730;2023-10-19T02:14:55;7.70;1.00
56542;DHT22;42438;53.174;6.730;2023-10-19T02:17:26;7.70;1.00
56542;DHT22;42438;53.174;6.730;2023-10-19T02:19:56;7.70;1.00
56542;DHT22;42438;53.174;6.730;2023-10-19T02:22:28;7.80;1.00
56542;DHT22;42438;53.174;6.730;2023-10-19T02:24:59;7.70;1.00
56542;DHT22;42438;53.174;6.730;2023-10-19T02:27:29;7.70;1.00
56542;DHT22;42438;53.174;6.730;2023-10-19T02:30:00;7.70;1.00
56542;DHT22;42438;53.174;6.730;2023-10-19T02:32:31;7.70;1.00
56542;DHT22;42438;53.174;6.730;2023-10-19T02:35:04;7.70;1.00
56542;DHT22;42438;53.174;6.730;2023-10-19T02:37:35;7.70;1.00
56542;DHT22;42438;53.174;6.730;2023-10-19T02:40:06;7.70;1.00
56542;DHT22;42438;53.174;6.730;2023-10-19T02:42:49;7.70;1.00
56542;DHT22;42438;53.174;6.730;2023-10-19T02:45:24;7.80;1.00
56542;DHT22;42438;53.174;6.730;2023-10-19T02:47:54;7.80;1.00
56542;DHT22;42438;53.174;6.730;2023-10-19T02:50:26;7.70;1.00
56542;DHT22;42438;53.174;6.730;2023-10-19T02:52:57;7.70;1.00
56542;DHT22;42438;53.174;6.730;2023-10-19T02:55:27;7.70;1.00
56542;DHT22;42438;53.174;6.730;2023-10-19T02:57:58;7.80;1.00
56542;DHT22;42438;53.174;6.730;2023-10-19T03:00:29;7.80;1.00
56542;DHT22;42438;53.174;6.730;2023-10-19T03:03:04;7.70;1.00
56542;DHT22;42438;53.174;6.730;2023-10-19T03:05:35;7.70;1.00
56542;DHT22;42438;53.174;6.730;2023-10-19T03:08:06;7.70;1.00
56542;DHT22;42438;53.174;6.730;2023-10-19T03:10:37;7.70;1.00
56542;DHT22;42438;53.174;6.730;2023-10-19T03:13:14;7.70;1.00
56542;DHT22;42438;53.174;6.730;2023-10-19T03:15:46;7.70;1.00
56542;DHT22;42438;53.174;6.730;2023-10-19T03:18:19;7.80;1.00
56542;DHT22;42438;53.174;6.730;2023-10-19T03:20:49;7.80;1.00
56542;DHT22;42438;53.174;6.730;2023-10-19T03:23:21;7.80;1.00
56542;DHT22;42438;53.174;6.730;2023-10-19T03:25:55;7.80;1.00
56542;DHT22;42438;53.174;6.730;2023-10-19T03:28:50;7.80;1.00
56542;DHT22;42438;53.174;6.730;2023-10-19T03:31:25;7.80;1.00
56542;DHT22;42438;53.174;6.730;2023-10-19T03:33:56;7.80;1.00
56542;DHT22;42438;53.174;6.730;2023-10-19T03:36:29;7.80;1.00
56542;DHT22;42438;53.174;6.730;2023-10-19T03:39:01;7.80;1.00
56542;DHT22;42438;53.174;6.730;2023-10-19T03:41:41;7.80;1.00
56542;DHT22;42438;53.174;6.730;2023-10-19T03:44:13;7.80;1.00
56542;DHT22;42438;53.174;6.730;2023-10-19T03:46:54;7.80;1.00
56542;DHT22;42438;53.174;6.730;2023-10-19T03:49:30;7.80;1.00
56542;DHT22;42438;53.174;6.730;2023-10-19T03:52:06;8.10;1.00
56542;DHT22;42438;53.174;6.730;2023-10-19T03:54:40;7.90;1.00
56542;DHT22;42438;53.174;6.730;2023-10-19T03:57:15;7.90;1.00
56542;DHT22;42438;53.174;6.730;2023-10-19T03:59:50;7.80;1.00
56542;DHT22;42438;53.174;6.730;2023-10-19T04:02:21;7.80;1.00
56542;DHT22;42438;53.174;6.730;2023-10-19T04:04:54;7.90;1.00
56542;DHT22;42438;53.174;6.730;2023-10-19T04:07:27;7.90;1.00
56542;DHT22;42438;53.174;6.730;2023-10-19T04:10:01;7.90;1.00
56542;DHT22;42438;53.174;6.730;2023-10-19T04:12:40;7.90;1.00
56542;DHT22;42438;53.174;6.730;2023-10-19T04:15:14;7.80;1.00
56542;DHT22;42438;53.174;6.730;2023-10-19T04:17:48;7.90;1.00
56542;DHT22;42438;53.174;6.730;2023-10-19T04:20:19;7.90;1.00
56542;DHT22;42438;53.174;6.730;2023-10-19T04:22:50;7.90;1.00
56542;DHT22;42438;53.174;6.730;2023-10-19T04:25:21;7.90;1.00
56542;DHT22;42438;53.174;6.730;2023-10-19T04:27:57;7.90;1.00
56542;DHT22;42438;53.174;6.730;2023-10-19T04:30:28;7.90;1.00
56542;DHT22;42438;53.174;6.730;2023-10-19T04:33:00;7.90;1.00
56542;DHT22;42438;53.174;6.730;2023-10-19T04:35:32;7.90;1.00
56542;DHT22;42438;53.174;6.730;2023-10-19T04:38:05;7.90;1.00
56542;DHT22;42438;53.174;6.730;2023-10-19T04:40:38;8.00;1.00
56542;DHT22;42438;53.174;6.730;2023-10-19T04:43:09;7.90;1.00
56542;DHT22;42438;53.174;6.730;2023-10-19T04:45:40;7.90;1.00
56542;DHT22;42438;53.174;6.730;2023-10-19T04:48:11;7.90;1.00
56542;DHT22;42438;53.174;6.730;2023-10-19T04:50:41;8.30;1.00
56542;DHT22;42438;53.174;6.730;2023-10-19T04:53:12;7.90;1.00
56542;DHT22;42438;53.174;6.730;2023-10-19T04:55:43;7.90;1.00
56542;DHT22;42438;53.174;6.730;2023-10-19T04:58:16;8.00;1.00
56542;DHT22;42438;53.174;6.730;2023-10-19T05:00:47;8.00;1.00
56542;DHT22;42438;53.174;6.730;2023-10-19T05:03:19;7.90;1.00
56542;DHT22;42438;53.174;6.730;2023-10-19T05:05:50;8.00;1.00
56542;DHT22;42438;53.174;6.730;2023-10-19T05:08:22;7.90;1.00
56542;DHT22;42438;53.174;6.730;2023-10-19T05:10:55;8.00;1.00
56542;DHT22;42438;53.174;6.730;2023-10-19T05:13:27;8.00;1.00
56542;DHT22;42438;53.174;6.730;2023-10-19T05:15:59;8.00;1.00
56542;DHT22;42438;53.174;6.730;2023-10-19T05:18:29;8.00;1.00
56542;DHT22;42438;53.174;6.730;2023-10-19T05:21:00;8.00;1.00
56542;DHT22;42438;53.174;6.730;2023-10-19T05:23:31;8.00;1.00
56542;DHT22;42438;53.174;6.730;2023-10-19T05:26:04;8.00;1.00
56542;DHT22;42438;53.174;6.730;2023-10-19T05:28:35;8.00;1.00
56542;DHT22;42438;53.174;6.730;2023-10-19T05:31:05;8.00;1.00
56542;DHT22;42438;53.174;6.730;2023-10-19T05:33:36;8.10;1.00
56542;DHT22;42438;53.174;6.730;2023-10-19T05:36:06;8.00;1.00
56542;DHT22;42438;53.174;6.730;2023-10-19T05:38:37;8.00;1.00
56542;DHT22;42438;53.174;6.730;2023-10-19T05:41:08;8.00;1.00
56542;DHT22;42438;53.174;6.730;2023-10-19T05:43:39;8.00;1.00
56542;DHT22;42438;53.174;6.730;2023-10-19T05:46:10;8.10;1.00
56542;DHT22;42438;53.174;6.730;2023-10-19T05:48:41;8.00;1.00
56542;DHT22;42438;53.174;6.730;2023-10-19T05:51:12;8.00;1.00
56542;DHT22;42438;53.174;6.730;2023-10-19T05:53:45;8.00;1.00
56542;DHT22;42438;53.174;6.730;2023-10-19T05:56:15;8.00;1.00
56542;DHT22;42438;53.174;6.730;2023-10-19T05:58:47;8.00;1.00
56542;DHT22;42438;53.174;6.730;2023-10-19T06:01:21;8.10;1.00
56542;DHT22;42438;53.174;6.730;2023-10-19T06:03:52;8.10;1.00
56542;DHT22;42438;53.174;6.730;2023-10-19T06:06:23;8.00;1.00
56542;DHT22;42438;53.174;6.730;2023-10-19T06:08:54;8.00;1.00
56542;DHT22;42438;53.174;6.730;2023-10-19T06:11:28;8.20;1.00
56542;DHT22;42438;53.174;6.730;2023-10-19T06:14:04;8.00;1.00
56542;DHT22;42438;53.174;6.730;2023-10-19T06:16:37;8.00;1.00
56542;DHT22;42438;53.174;6.730;2023-10-19T06:19:08;8.00;1.00
56542;DHT22;42438;53.174;6.730;2023-10-19T06:21:39;8.10;1.00
56542;DHT22;42438;53.174;6.730;2023-10-19T06:24:10;8.10;1.00
56542;DHT22;42438;53.174;6.730;2023-10-19T06:26:45;8.00;1.00
56542;DHT22;42438;53.174;6.730;2023-10-19T06:29:15;8.10;1.00
56542;DHT22;42438;53.174;6.730;2023-10-19T06:31:46;8.10;1.00
56542;DHT22;42438;53.174;6.730;2023-10-19T06:34:16;8.10;1.00
56542;DHT22;42438;53.174;6.730;2023-10-19T06:36:47;8.00;1.00
56542;DHT22;42438;53.174;6.730;2023-10-19T06:39:18;8.10;1.00
56542;DHT22;42438;53.174;6.730;2023-10-19T06:41:51;8.10;1.00
56542;DHT22;42438;53.174;6.730;2023-10-19T06:44:22;8.20;1.00
56542;DHT22;42438;53.174;6.730;2023-10-19T06:46:53;8.20;1.00
56542;DHT22;42438;53.174;6.730;2023-10-19T06:49:23;8.20;1.00
56542;DHT22;42438;53.174;6.730;2023-10-19T06:51:55;8.20;1.00
56542;DHT22;42438;53.174;6.730;2023-10-19T06:54:26;8.10;1.00
56542;DHT22;42438;53.174;6.730;2023-10-19T06:56:59;8.20;1.00
56542;DHT22;42438;53.174;6.730;2023-10-19T06:59:29;8.20;1.00
56542;DHT22;42438;53.174;6.730;2023-10-19T07:02:00;8.10;1.00
56542;DHT22;42438;53.174;6.730;2023-10-19T07:04:31;8.20;1.00
56542;DHT22;42438;53.174;6.730;2023-10-19T07:07:02;8.20;1.00
56542;DHT22;42438;53.174;6.730;2023-10-19T07:09:32;8.20;1.00
56542;DHT22;42438;53.174;6.730;2023-10-19T07:12:06;8.20;1.00
56542;DHT22;42438;53.174;6.730;2023-10-19T07:14:38;8.20;1.00
56542;DHT22;42438;53.174;6.730;2023-10-19T07:17:11;8.10;1.00
56542;DHT22;42438;53.174;6.730;2023-10-19T07:19:43;8.10;1.00
56542;DHT22;42438;53.174;6.730;2023-10-19T07:22:14;8.20;1.00
56542;DHT22;42438;53.174;6.730;2023-10-19T07:24:45;8.10;1.00
56542;DHT22;42438;53.174;6.730;2023-10-19T07:27:16;8.20;1.00
56542;DHT22;42438;53.174;6.730;2023-10-19T07:29:48;8.20;1.00
56542;DHT22;42438;53.174;6.730;2023-10-19T07:32:19;8.10;1.00
56542;DHT22;42438;53.174;6.730;2023-10-19T07:34:50;8.20;1.00
56542;DHT22;42438;53.174;6.730;2023-10-19T07:37:21;8.20;1.00
56542;DHT22;42438;53.174;6.730;2023-10-19T07:39:51;8.20;1.00
56542;DHT22;42438;53.174;6.730;2023-10-19T07:42:23;8.20;1.00
56542;DHT22;42438;53.174;6.730;2023-10-19T07:44:54;8.20;1.00
56542;DHT22;42438;53.174;6.730;2023-10-19T07:47:25;8.20;1.00
56542;DHT22;42438;53.174;6.730;2023-10-19T07:49:56;8.20;1.00
56542;DHT22;42438;53.174;6.730;2023-10-19T07:52:27;8.20;1.00
56542;DHT22;42438;53.174;6.730;2023-10-19T07:54:58;8.20;1.00
56542;DHT22;42438;53.174;6.730;2023-10-19T07:57:29;8.20;1.00
56542;DHT22;42438;53.174;6.730;2023-10-19T08:00:00;8.80;1.00
56542;DHT22;42438;53.174;6.730;2023-10-19T08:02:30;8.20;1.00
56542;DHT22;42438;53.174;6.730;2023-10-19T08:05:01;8.20;1.00
56542;DHT22;42438;53.174;6.730;2023-10-19T08:07:33;8.20;1.00
56542;DHT22;42438;53.174;6.730;2023-10-19T08:10:11;8.30;1.00
56542;DHT22;42438;53.174;6.730;2023-10-19T08:12:43;8.30;1.00
56542;DHT22;42438;53.174;6.730;2023-10-19T08:15:15;8.20;1.00
56542;DHT22;42438;53.174;6.730;2023-10-19T08:17:50;8.20;1.00
56542;DHT22;42438;53.174;6.730;2023-10-19T08:20:21;8.30;1.00
56542;DHT22;42438;53.174;6.730;2023-10-19T08:23:00;8.30;1.00
56542;DHT22;42438;53.174;6.730;2023-10-19T08:25:36;8.30;1.00
56542;DHT22;42438;53.174;6.730;2023-10-19T08:28:07;8.30;1.00
56542;DHT22;42438;53.174;6.730;2023-10-19T08:30:37;8.30;1.00
56542;DHT22;42438;53.174;6.730;2023-10-19T08:33:08;8.30;1.00
56542;DHT22;42438;53.174;6.730;2023-10-19T08:35:39;8.30;1.00
56542;DHT22;42438;53.174;6.730;2023-10-19T08:38:09;8.30;1.00
56542;DHT22;42438;53.174;6.730;2023-10-19T08:40:42;8.30;1.00
56542;DHT22;42438;53.174;6.730;2023-10-19T08:43:13;8.30;1.00
56542;DHT22;42438;53.174;6.730;2023-10-19T08:45:44;8.30;1.00
56542;DHT22;42438;53.174;6.730;2023-10-19T08:48:16;8.30;1.00
56542;DHT22;42438;53.174;6.730;2023-10-19T08:50:47;8.30;1.00
56542;DHT22;42438;53.174;6.730;2023-10-19T08:53:21;8.30;1.00
56542;DHT22;42438;53.174;6.730;2023-10-19T08:55:52;8.30;1.00
56542;DHT22;42438;53.174;6.730;2023-10-19T08:58:26;8.40;1.00
56542;DHT22;42438;53.174;6.730;2023-10-19T09:00:58;8.40;1.00
56542;DHT22;42438;53.174;6.730;2023-10-19T09:03:36;8.40;1.00
56542;DHT22;42438;53.174;6.730;2023-10-19T09:06:07;8.40;1.00
56542;DHT22;42438;53.174;6.730;2023-10-19T09:08:39;8.50;1.00
56542;DHT22;42438;53.174;6.730;2023-10-19T09:11:10;8.50;1.00
56542;DHT22;42438;53.174;6.730;2023-10-19T09:13:48;8.50;1.00
56542;DHT22;42438;53.174;6.730;2023-10-19T09:16:21;8.50;1.00
56542;DHT22;42438;53.174;6.730;2023-10-19T09:18:52;8.50;1.00
56542;DHT22;42438;53.174;6.730;2023-10-19T09:21:23;8.50;1.00
56542;DHT22;42438;53.174;6.730;2023-10-19T09:23:57;8.50;1.00
56542;DHT22;42438;53.174;6.730;2023-10-19T09:26:28;8.50;1.00
56542;DHT22;42438;53.174;6.730;2023-10-19T09:28:58;8.60;1.00
56542;DHT22;42438;53.174;6.730;2023-10-19T09:31:30;8.60;1.00
56542;DHT22;42438;53.174;6.730;2023-10-19T09:34:01;8.70;1.00
56542;DHT22;42438;53.174;6.730;2023-10-19T09:36:36;8.60;1.00
56542;DHT22;42438;53.174;6.730;2023-10-19T09:39:08;8.60;1.00
56542;DHT22;42438;53.174;6.730;2023-10-19T09:41:43;8.60;1.00
56542;DHT22;42438;53.174;6.730;2023-10-19T09:44:17;8.70;1.00
56542;DHT22;42438;53.174;6.730;2023-10-19T09:46:50;8.70;1.00
56542;DHT22;42438;53.174;6.730;2023-10-19T09:49:24;8.80;1.00
56542;DHT22;42438;53.174;6.730;2023-10-19T09:51:56;8.80;1.00
56542;DHT22;42438;53.174;6.730;2023-10-19T09:57:10;8.80;1.00
56542;DHT22;42438;53.174;6.730;2023-10-19T09:59:51;8.80;1.00
56542;DHT22;42438;53.174;6.730;2023-10-19T10:02:27;8.90;1.00
56542;DHT22;42438;53.174;6.730;2023-10-19T10:04:58;8.80;1.00
56542;DHT22;42438;53.174;6.730;2023-10-19T10:07:30;8.90;1.00
56542;DHT22;42438;53.174;6.730;2023-10-19T10:10:01;8.90;1.00
56542;DHT22;42438;53.174;6.730;2023-10-19T10:12:35;9.00;1.00
56542;DHT22;42438;53.174;6.730;2023-10-19T10:15:06;9.00;1.00
56542;DHT22;42438;53.174;6.730;2023-10-19T10:17:40;9.00;1.00
56542;DHT22;42438;53.174;6.730;2023-10-19T10:22:44;9.10;1.00
56542;DHT22;42438;53.174;6.730;2023-10-19T10:25:28;9.00;1.00
56542;DHT22;42438;53.174;6.730;2023-10-19T10:27:59;9.10;1.00
56542;DHT22;42438;53.174;6.730;2023-10-19T10:30:30;9.10;1.00
56542;DHT22;42438;53.174;6.730;2023-10-19T10:33:01;9.10;1.00
56542;DHT22;42438;53.174;6.730;2023-10-19T10:38:11;9.20;1.00
56542;DHT22;42438;53.174;6.730;2023-10-19T10:40:46;9.20;1.00
56542;DHT22;42438;53.174;6.730;2023-10-19T10:43:19;9.20;1.00
56542;DHT22;42438;53.174;6.730;2023-10-19T10:45:50;9.20;1.00
56542;DHT22;42438;53.174;6.730;2023-10-19T10:48:21;9.20;1.00
56542;DHT22;42438;53.174;6.730;2023-10-19T10:50:52;9.20;1.00
56542;DHT22;42438;53.174;6.730;2023-10-19T10:53:24;9.20;1.00
56542;DHT22;42438;53.174;6.730;2023-10-19T10:56:00;9.20;1.00
56542;DHT22;42438;53.174;6.730;2023-10-19T10:58:31;9.20;1.00
56542;DHT22;42438;53.174;6.730;2023-10-19T11:01:02;9.30;1.00
56542;DHT22;42438;53.174;6.730;2023-10-19T11:03:33;9.20;1.00
56542;DHT22;42438;53.174;6.730;2023-10-19T11:06:07;9.20;1.00
56542;DHT22;42438;53.174;6.730;2023-10-19T11:08:41;9.30;1.00
56542;DHT22;42438;53.174;6.730;2023-10-19T11:11:12;9.30;1.00
56542;DHT22;42438;53.174;6.730;2023-10-19T11:13:43;9.30;1.00
56542;DHT22;42438;53.174;6.730;2023-10-19T11:16:22;9.30;1.00
56542;DHT22;42438;53.174;6.730;2023-10-19T11:18:53;9.30;1.00
56542;DHT22;42438;53.174;6.730;2023-10-19T11:21:24;9.40;1.00
56542;DHT22;42438;53.174;6.730;2023-10-19T11:23:55;9.40;1.00
56542;DHT22;42438;53.174;6.730;2023-10-19T11:26:27;9.40;1.00
56542;DHT22;42438;53.174;6.730;2023-10-19T11:29:02;9.40;1.00
56542;DHT22;42438;53.174;6.730;2023-10-19T11:31:34;9.40;1.00
56542;DHT22;42438;53.174;6.730;2023-10-19T11:34:08;9.40;1.00
56542;DHT22;42438;53.174;6.730;2023-10-19T11:36:40;9.50;1.00
56542;DHT22;42438;53.174;6.730;2023-10-19T11:39:11;9.50;1.00
56542;DHT22;42438;53.174;6.730;2023-10-19T11:41:42;9.40;1.00
56542;DHT22;42438;53.174;6.730;2023-10-19T11:44:13;9.50;1.00
56542;DHT22;42438;53.174;6.730;2023-10-19T11:46:44;9.50;1.00
56542;DHT22;42438;53.174;6.730;2023-10-19T11:49:14;9.40;1.00
56542;DHT22;42438;53.174;6.730;2023-10-19T11:51:45;9.50;1.00
56542;DHT22;42438;53.174;6.730;2023-10-19T11:54:17;9.40;1.00
56542;DHT22;42438;53.174;6.730;2023-10-19T11:56:48;9.40;1.00
56542;DHT22;42438;53.174;6.730;2023-10-19T11:59:19;9.30;1.00
56542;DHT22;42438;53.174;6.730;2023-10-19T12:01:50;9.30;1.00
56542;DHT22;42438;53.174;6.730;2023-10-19T12:04:20;9.30;1.00
56542;DHT22;42438;53.174;6.730;2023-10-19T12:06:51;9.20;1.00
56542;DHT22;42438;53.174;6.730;2023-10-19T12:09:22;9.30;1.00
56542;DHT22;42438;53.174;6.730;2023-10-19T12:11:55;9.20;1.00
56542;DHT22;42438;53.174;6.730;2023-10-19T12:14:26;9.30;1.00
56542;DHT22;42438;53.174;6.730;2023-10-19T12:16:56;9.30;1.00
56542;DHT22;42438;53.174;6.730;2023-10-19T12:19:32;9.20;1.00
56542;DHT22;42438;53.174;6.730;2023-10-19T12:22:03;9.30;1.00
56542;DHT22;42438;53.174;6.730;2023-10-19T12:24:33;9.20;1.00
56542;DHT22;42438;53.174;6.730;2023-10-19T12:27:04;9.20;1.00
56542;DHT22;42438;53.174;6.730;2023-10-19T12:29:35;9.30;1.00
56542;DHT22;42438;53.174;6.730;2023-10-19T12:32:06;9.20;1.00
56542;DHT22;42438;53.174;6.730;2023-10-19T12:34:37;9.20;1.00
56542;DHT22;42438;53.174;6.730;2023-10-19T12:37:07;9.20;1.00
56542;DHT22;42438;53.174;6.730;2023-10-19T12:39:40;9.20;1.00
56542;DHT22;42438;53.174;6.730;2023-10-19T12:42:15;9.20;1.00
56542;DHT22;42438;53.174;6.730;2023-10-19T12:44:46;9.20;1.00
56542;DHT22;42438;53.174;6.730;2023-10-19T12:47:17;9.20;1.00
56542;DHT22;42438;53.174;6.730;2023-10-19T12:49:48;9.20;1.00
56542;DHT22;42438;53.174;6.730;2023-10-19T12:52:18;9.10;1.00
56542;DHT22;42438;53.174;6.730;2023-10-19T12:54:49;9.20;1.00
56542;DHT22;42438;53.174;6.730;2023-10-19T12:57:24;9.20;1.00
56542;DHT22;42438;53.174;6.730;2023-10-19T12:59:57;9.10;1.00
56542;DHT22;42438;53.174;6.730;2023-10-19T13:02:29;9.20;1.00
56542;DHT22;42438;53.174;6.730;2023-10-19T13:05:01;9.10;1.00
56542;DHT22;42438;53.174;6.730;2023-10-19T13:07:31;9.10;1.00
56542;DHT22;42438;53.174;6.730;2023-10-19T13:10:02;9.10;1.00
56542;DHT22;42438;53.174;6.730;2023-10-19T13:12:35;9.10;1.00
56542;DHT22;42438;53.174;6.730;2023-10-19T13:15:07;9.10;1.00
56542;DHT22;42438;53.174;6.730;2023-10-19T13:17:43;9.10;1.00
56542;DHT22;42438;53.174;6.730;2023-10-19T13:20:14;9.10;1.00
56542;DHT22;42438;53.174;6.730;2023-10-19T13:22:48;9.10;1.00
56542;DHT22;42438;53.174;6.730;2023-10-19T13:25:19;9.10;1.00
56542;DHT22;42438;53.174;6.730;2023-10-19T13:27:59;9.10;1.00
56542;DHT22;42438;53.174;6.730;2023-10-19T13:30:29;9.10;1.00
56542;DHT22;42438;53.174;6.730;2023-10-19T13:33:00;9.00;1.00
56542;DHT22;42438;53.174;6.730;2023-10-19T13:35:31;9.10;1.00
56542;DHT22;42438;53.174;6.730;2023-10-19T13:38:03;9.10;1.00
56542;DHT22;42438;53.174;6.730;2023-10-19T13:40:38;9.10;1.00
56542;DHT22;42438;53.174;6.730;2023-10-19T13:43:09;9.00;1.00
56542;DHT22;42438;53.174;6.730;2023-10-19T13:45:45;9.10;1.00
56542;DHT22;42438;53.174;6.730;2023-10-19T13:48:15;9.10;1.00
56542;DHT22;42438;53.174;6.730;2023-10-19T13:50:48;9.10;1.00
56542;DHT22;42438;53.174;6.730;2023-10-19T13:53:19;9.00;1.00
56542;DHT22;42438;53.174;6.730;2023-10-19T13:55:49;9.00;1.00
56542;DHT22;42438;53.174;6.730;2023-10-19T13:58:20;9.10;1.00
56542;DHT22;42438;53.174;6.730;2023-10-19T14:00:51;9.00;1.00
56542;DHT22;42438;53.174;6.730;2023-10-19T14:03:22;9.10;1.00
56542;DHT22;42438;53.174;6.730;2023-10-19T14:05:53;9.10;1.00
56542;DHT22;42438;53.174;6.730;2023-10-19T14:08:26;9.10;1.00
56542;DHT22;42438;53.174;6.730;2023-10-19T14:11:03;9.10;1.00
56542;DHT22;42438;53.174;6.730;2023-10-19T14:13:35;9.10;1.00
56542;DHT22;42438;53.174;6.730;2023-10-19T14:16:09;9.10;1.00
56542;DHT22;42438;53.174;6.730;2023-10-19T14:18:39;9.10;1.00
56542;DHT22;42438;53.174;6.730;2023-10-19T14:21:14;9.20;1.00
56542;DHT22;42438;53.174;6.730;2023-10-19T14:23:45;9.10;1.00
56542;DHT22;42438;53.174;6.730;2023-10-19T14:26:16;9.10;1.00
56542;DHT22;42438;53.174;6.730;2023-10-19T14:28:47;9.10;1.00
56542;DHT22;42438;53.174;6.730;2023-10-19T14:31:18;9.20;1.00
56542;DHT22;42438;53.174;6.730;2023-10-19T14:33:50;9.10;1.00
56542;DHT22;42438;53.174;6.730;2023-10-19T14:36:21;9.10;1.00
56542;DHT22;42438;53.174;6.730;2023-10-19T14:38:52;9.20;1.00
56542;DHT22;42438;53.174;6.730;2023-10-19T14:41:23;9.10;1.00
56542;DHT22;42438;53.174;6.730;2023-10-19T14:43:54;9.10;1.00
56542;DHT22;42438;53.174;6.730;2023-10-19T14:46:24;9.10;1.00
56542;DHT22;42438;53.174;6.730;2023-10-19T14:48:57;9.10;1.00
56542;DHT22;42438;53.174;6.730;2023-10-19T14:51:28;9.10;1.00
56542;DHT22;42438;53.174;6.730;2023-10-19T14:53:58;9.10;1.00
56542;DHT22;42438;53.174;6.730;2023-10-19T14:56:29;9.10;1.00
56542;DHT22;42438;53.174;6.730;2023-10-19T14:59:00;9.10;1.00
56542;DHT22;42438;53.174;6.730;2023-10-19T15:01:31;9.00;1.00
56542;DHT22;42438;53.174;6.730;2023-10-19T15:04:01;9.00;1.00
56542;DHT22;42438;53.174;6.730;2023-10-19T15:06:32;9.00;1.00
56542;DHT22;42438;53.174;6.730;2023-10-19T15:09:03;9.10;1.00
56542;DHT22;42438;53.174;6.730;2023-10-19T15:11:33;9.00;1.00
56542;DHT22;42438;53.174;6.730;2023-10-19T15:14:04;9.00;1.00
56542;DHT22;42438;53.174;6.730;2023-10-19T15:16:35;9.00;1.00
56542;DHT22;42438;53.174;6.730;2023-10-19T15:19:06;8.90;1.00
56542;DHT22;42438;53.174;6.730;2023-10-19T15:21:36;9.00;1.00
56542;DHT22;42438;53.174;6.730;2023-10-19T15:24:07;8.90;1.00
56542;DHT22;42438;53.174;6.730;2023-10-19T15:26:39;8.90;1.00
56542;DHT22;42438;53.174;6.730;2023-10-19T15:29:09;8.90;1.00
56542;DHT22;42438;53.174;6.730;2023-10-19T15:31:40;8.90;1.00
56542;DHT22;42438;53.174;6.730;2023-10-19T15:34:11;8.90;1.00
56542;DHT22;42438;53.174;6.730;2023-10-19T15:36:43;9.00;1.00
56542;DHT22;42438;53.174;6.730;2023-10-19T15:39:14;8.90;1.00
56542;DHT22;42438;53.174;6.730;2023-10-19T15:41:44;8.90;1.00
56542;DHT22;42438;53.174;6.730;2023-10-19T15:44:16;8.90;1.00
56542;DHT22;42438;53.174;6.730;2023-10-19T15:46:47;8.90;1.00
56542;DHT22;42438;53.174;6.730;2023-10-19T15:49:19;8.90;1.00
56542;DHT22;42438;53.174;6.730;2023-10-19T15:51:51;8.90;1.00
56542;DHT22;42438;53.174;6.730;2023-10-19T15:54:22;8.90;1.00
56542;DHT22;42438;53.174;6.730;2023-10-19T15:56:53;8.90;1.00
56542;DHT22;42438;53.174;6.730;2023-10-19T15:59:23;8.90;1.00
56542;DHT22;42438;53.174;6.730;2023-10-19T16:01:54;8.80;1.00
56542;DHT22;42438;53.174;6.730;2023-10-19T16:04:25;8.80;1.00
56542;DHT22;42438;53.174;6.730;2023-10-19T16:06:55;8.90;1.00
56542;DHT22;42438;53.174;6.730;2023-10-19T16:09:26;8.80;1.00
56542;DHT22;42438;53.174;6.730;2023-10-19T16:11:57;8.80;1.00
56542;DHT22;42438;53.174;6.730;2023-10-19T16:14:27;8.80;1.00
56542;DHT22;42438;53.174;6.730;2023-10-19T16:16:58;8.80;1.00
56542;DHT22;42438;53.174;6.730;2023-10-19T16:19:29;8.80;1.00
56542;DHT22;42438;53.174;6.730;2023-10-19T16:22:00;8.80;1.00
56542;DHT22;42438;53.174;6.730;2023-10-19T16:24:31;8.80;1.00
56542;DHT22;42438;53.174;6.730;2023-10-19T16:27:02;8.90;1.00
56542;DHT22;42438;53.174;6.730;2023-10-19T16:29:32;8.70;1.00
56542;DHT22;42438;53.174;6.730;2023-10-19T16:32:03;8.80;1.00
56542;DHT22;42438;53.174;6.730;2023-10-19T16:34:34;8.70;1.00
56542;DHT22;42438;53.174;6.730;2023-10-19T16:37:05;8.80;1.00
56542;DHT22;42438;53.174;6.730;2023-10-19T16:39:36;8.70;1.00